Time;durP1;ratioP1;P1;durP2;ratioP2;P2;SDS_P1;SDS_P2;PMS_P1;PMS_P2;Temp;Humidity;BMP_temperature;BMP_pressure;BME280_temperature;BME280_humidity;BME280_pressure;Samples;Min_cycle;Max_cycle;Signal;HPM_P1;HPM_P2
2023/05/07 00:01:57;;;;;;;20.48;16.35;;;;;;;;;;4901261;29;20080;-69
2023/05/07 00:04:23;;;;;;;19.30;14.48;;;14.30;99.90;;;;;;4900865;29;20040;-69
2023/05/07 00:06:49;;;;;;;20.83;15.35;;;;;;;;;;4900882;29;20040;-69
2023/05/07 00:09:16;;;;;;;20.15;15.90;;;;;;;;;;4900898;29;20134;-69
2023/05/07 00:11:42;;;;;;;19.67;15.90;;;;;;;;;;4900646;29;20394;-69
2023/05/07 00:14:08;;;;;;;22.92;15.90;;;;;;;;;;4917696;29;20084;-70
2023/05/07 00:16:34;;;;;;;18.80;16.25;;;;;;;;;;4885252;29;20071;-69
2023/05/07 00:19:00;;;;;;;23.77;16.95;;;;;;;;;;4917730;29;20049;-68
2023/05/07 00:21:27;;;;;;;25.02;16.48;;;;;;;;;;4917466;29;20086;-68
2023/05/07 00:23:56;;;;;;;19.33;15.95;;;;;;;;;;4900005;29;20040;-68
2023/05/07 00:26:22;;;;;;;21.20;15.38;;;;;;;;;;4900574;29;20058;-69
2023/05/07 00:28:48;;;;;;;22.15;16.48;;;;;;;;;;4900668;29;20135;-70
2023/05/07 00:31:14;;;;;;;23.80;15.88;;;;;;;;;;4900765;29;20048;-69
2023/05/07 00:33:40;;;;;;;18.98;15.82;;;;;;;;;;4900352;29;20056;-69
2023/05/07 00:36:06;;;;;;;23.08;15.80;;;;;;;;;;4900397;29;20048;-69
2023/05/07 00:38:32;;;;;;;23.40;15.15;;;;;;;;;;4900613;29;20059;-70
2023/05/07 00:40:59;;;;;;;20.15;15.23;;;;;;;;;;4900346;29;20126;-70
2023/05/07 00:43:24;;;;;;;20.98;15.38;;;15.10;99.90;;;;;;4900508;29;20047;-70
2023/05/07 00:45:50;;;;;;;20.83;15.57;;;;;;;;;;4917295;29;20552;-69
2023/05/07 00:48:17;;;;;;;23.05;15.55;;;14.50;99.90;;;;;;4900100;29;20106;-69
2023/05/07 00:50:43;;;;;;;20.25;14.98;;;15.00;99.90;;;;;;4917118;29;20104;-70
2023/05/07 00:53:09;;;;;;;21.45;16.33;;;;;;;;;;4900038;29;20044;-69
2023/05/07 00:55:36;;;;;;;20.90;15.68;;;13.90;99.90;;;;;;4900180;29;20044;-70
2023/05/07 00:58:02;;;;;;;20.75;15.70;;;;;;;;;;4900024;29;20111;-70
2023/05/07 01:00:29;;;;;;;21.30;15.73;;;14.70;99.90;;;;;;4900051;29;20051;-70
2023/05/07 01:02:55;;;;;;;21.25;16.55;;;;;;;;;;4916958;29;20059;-69
2023/05/07 01:05:24;;;;;;;22.92;15.88;;;15.00;99.90;;;;;;4900052;29;20091;-70
2023/05/07 01:07:50;;;;;;;21.38;15.95;;;;;;;;;;4916961;29;20048;-69
2023/05/07 01:10:17;;;;;;;20.30;15.70;;;13.70;99.90;;;;;;4900082;29;20403;-69
2023/05/07 01:12:45;;;;;;;20.85;16.67;;;13.90;99.90;;;;;;4916995;29;20044;-69
2023/05/07 01:15:11;;;;;;;22.63;16.23;;;;;;;;;;4917129;29;20044;-70
2023/05/07 01:17:40;;;;;;;21.13;15.98;;;13.90;99.90;;;;;;4900275;29;20048;-70
2023/05/07 01:20:07;;;;;;;22.73;16.17;;;13.40;99.90;;;;;;4899921;29;20389;-70
2023/05/07 01:22:33;;;;;;;22.23;16.25;;;14.00;99.90;;;;;;4899798;29;20438;-70
2023/05/07 01:25:01;;;;;;;24.85;16.92;;;;;;;;;;4899959;29;20044;-70
2023/05/07 01:27:27;;;;;;;21.63;15.57;;;;;;;;;;4899891;29;20489;-70
2023/05/07 01:29:53;;;;;;;22.10;16.40;;;;;;;;;;4899862;29;20104;-70
2023/05/07 01:32:27;;;;;;;22.48;17.13;;;13.80;99.90;;;;;;4900089;29;20409;-70
2023/05/07 01:34:53;;;;;;;24.17;16.90;;;;;;;;;;4900184;29;20048;-70
2023/05/07 01:37:20;;;;;;;22.15;16.67;;;13.60;99.90;;;;;;4888264;29;20469;-70
2023/05/07 01:39:47;;;;;;;24.70;17.33;;;;;;;;;;4903814;29;20411;-70
2023/05/07 01:42:13;;;;;;;21.67;16.50;;;;;;;;;;4888166;29;20104;-70
2023/05/07 01:44:39;;;;;;;22.90;17.27;;;;;;;;;;4903753;29;20497;-70
2023/05/07 01:47:06;;;;;;;26.83;17.67;;;13.60;99.90;;;;;;4903349;29;20393;-70
2023/05/07 01:49:32;;;;;;;24.95;17.15;;;;;;;;;;4920425;29;20083;-70
2023/05/07 01:51:59;;;;;;;26.60;18.55;;;14.50;99.90;;;;;;4903501;29;20446;-70
2023/05/07 01:54:28;;;;;;;25.00;17.73;;;;;;;;;;4903235;29;20123;-71
2023/05/07 01:56:55;;;;;;;24.65;17.35;;;13.60;99.90;;;;;;4903480;29;20099;-70
2023/05/07 01:59:21;;;;;;;23.88;18.05;;;;;;;;;;4920165;29;20059;-70
2023/05/07 02:01:47;;;;;;;24.75;17.08;;;;;;;;;;4903002;29;20044;-70
2023/05/07 02:04:14;;;;;;;25.35;18.73;;;;;;;;;;4903043;29;20082;-70
2023/05/07 02:06:40;;;;;;;23.90;18.23;;;;;;;;;;4903323;29;20044;-69
2023/05/07 02:09:08;;;;;;;29.65;19.45;;;;;;;;;;4887394;29;20510;-70
2023/05/07 02:11:34;;;;;;;27.50;20.17;;;;;;;;;;4887568;29;20063;-69
2023/05/07 02:14:01;;;;;;;24.23;18.50;;;;;;;;;;4902827;29;20048;-70
2023/05/07 02:16:27;;;;;;;26.48;19.77;;;;;;;;;;4902960;29;20051;-70
2023/05/07 02:18:53;;;;;;;28.98;19.73;;;;;;;;;;4887216;29;20091;-70
2023/05/07 02:21:19;;;;;;;29.15;20.17;;;;;;;;;;4903054;29;20079;-70
2023/05/07 02:23:45;;;;;;;28.20;19.80;;;;;;;;;;4871905;29;20048;-70
2023/05/07 02:26:11;;;;;;;29.35;20.20;;;;;;;;;;4919767;29;20489;-69
2023/05/07 02:28:37;;;;;;;29.17;20.10;;;;;;;;;;4903154;29;20493;-70
2023/05/07 02:31:04;;;;;;;28.83;20.15;;;;;;;;;;4903200;29;20036;-70
2023/05/07 02:33:30;;;;;;;29.08;19.88;;;;;;;;;;4886917;29;20044;-70
2023/05/07 02:35:56;;;;;;;31.95;19.88;;;;;;;;;;4902371;29;20069;-70
2023/05/07 02:38:23;;;;;;;31.08;19.48;;;;;;;;;;4886998;29;20044;-70
2023/05/07 02:40:49;;;;;;;26.85;20.30;;;;;;;;;;4902303;29;20044;-71
2023/05/07 02:43:15;;;;;;;27.23;19.30;;;;;;;;;;4902291;29;20477;-70
2023/05/07 02:45:42;;;;;;;27.15;19.63;;;;;;;;;;4902264;29;20083;-70
2023/05/07 02:48:09;;;;;;;29.20;21.38;;;;;;;;;;4901923;29;20091;-70
2023/05/07 02:50:35;;;;;;;27.80;20.63;;;;;;;;;;4903003;29;20048;-70
2023/05/07 02:53:01;;;;;;;31.15;20.05;;;;;;;;;;4919151;29;20481;-70
2023/05/07 02:55:27;;;;;;;28.15;19.98;;;;;;;;;;4902423;29;20397;-70
2023/05/07 02:57:53;;;;;;;30.90;20.27;;;;;;;;;;4902263;29;20040;-70
2023/05/07 03:00:20;;;;;;;30.33;19.95;;;;;;;;;;4901936;29;20040;-70
2023/05/07 03:02:46;;;;;;;29.88;20.48;;;;;;;;;;4902011;29;20481;-70
2023/05/07 03:05:14;;;;;;;28.92;19.90;;;;;;;;;;4886453;29;20127;-70
2023/05/07 03:07:44;;;;;;;27.35;19.60;;;;;;;;;;4902592;29;20112;-70
2023/05/07 03:10:09;;;;;;;27.20;20.33;;;13.80;99.90;;;;;;4918954;29;20040;-70
2023/05/07 03:12:35;;;;;;;29.58;20.42;;;;;;;;;;4918881;29;20504;-70
2023/05/07 03:15:01;;;;;;;26.80;19.70;;;;;;;;;;4918671;29;20048;-70
2023/05/07 03:17:28;;;;;;;29.13;20.27;;;;;;;;;;4918832;29;20143;-70
2023/05/07 03:19:54;;;;;;;30.20;22.05;;;;;;;;;;4902013;29;20050;-70
2023/05/07 03:22:20;;;;;;;31.50;22.38;;;;;;;;;;4918780;29;20048;-70
2023/05/07 03:24:46;;;;;;;29.05;20.42;;;12.20;99.90;;;;;;4871099;29;20048;-70
2023/05/07 03:27:12;;;;;;;30.13;20.90;;;;;;;;;;4901773;29;20556;-70
2023/05/07 03:29:38;;;;;;;30.05;20.95;;;;;;;;;;4918462;29;20080;-70
2023/05/07 03:32:04;;;;;;;29.27;20.50;;;13.10;99.90;;;;;;4901859;29;20130;-71
2023/05/07 03:34:30;;;;;;;28.20;20.98;;;;;;;;;;4901531;29;20138;-71
2023/05/07 03:36:56;;;;;;;31.90;20.98;;;;;;;;;;4918369;29;20056;-71
2023/05/07 03:39:22;;;;;;;31.05;22.10;;;;;;;;;;4885913;29;20056;-69
2023/05/07 03:41:48;;;;;;;30.00;21.92;;;;;;;;;;4901222;29;20464;-69
2023/05/07 03:44:15;;;;;;;29.27;21.20;;;;;;;;;;4901228;29;20075;-69
2023/05/07 03:46:41;;;;;;;31.02;21.33;;;;;;;;;;4901290;29;20055;-69
2023/05/07 03:49:07;;;;;;;31.02;21.15;;;;;;;;;;4901238;29;20044;-69
2023/05/07 03:51:33;;;;;;;31.27;20.90;;;;;;;;;;4901225;29;20059;-69
2023/05/07 03:53:59;;;;;;;31.52;22.15;;;;;;;;;;4901065;29;20055;-69
2023/05/07 03:56:26;;;;;;;35.08;21.42;;;;;;;;;;4901196;29;20044;-69
2023/05/07 03:58:52;;;;;;;31.10;21.58;;;;;;;;;;4884456;29;20111;-69
2023/05/07 04:01:18;;;;;;;33.85;22.50;;;;;;;;;;4901243;29;20095;-69
2023/05/07 04:03:45;;;;;;;34.10;23.27;;;;;;;;;;4885364;29;20047;-69
2023/05/07 04:06:12;;;;;;;32.45;23.40;;;;;;;;;;4900685;29;20496;-69
2023/05/07 04:08:38;;;;;;;32.92;22.70;;;;;;;;;;4900892;29;20134;-70
2023/05/07 04:11:04;;;;;;;28.90;23.27;;;;;;;;;;4900798;29;20052;-70
2023/05/07 04:13:30;;;;;;;32.55;23.40;;;12.40;99.90;;;;;;4917694;29;20434;-70
2023/05/07 04:15:56;;;;;;;30.70;22.90;;;;;;;;;;4917816;29;20044;-70
2023/05/07 04:18:22;;;;;;;32.03;22.98;;;;;;;;;;4917714;29;20036;-70
2023/05/07 04:20:49;;;;;;;37.10;23.58;;;;;;;;;;4900980;29;20123;-70
2023/05/07 04:23:16;;;;;;;35.40;23.65;;;;;;;;;;4900675;29;20048;-70
2023/05/07 04:25:42;;;;;;;35.42;23.33;;;;;;;;;;4917590;29;20095;-70
2023/05/07 04:28:08;;;;;;;35.92;23.30;;;;;;;;;;4900494;29;20079;-70
2023/05/07 04:30:34;;;;;;;34.42;22.25;;;;;;;;;;4900336;29;20131;-70
2023/05/07 04:33:00;;;;;;;36.08;24.50;;;;;;;;;;4884861;29;20103;-70
2023/05/07 04:35:26;;;;;;;37.97;25.02;;;;;;;;;;4900223;29;20060;-70
2023/05/07 04:37:52;;;;;;;36.10;23.50;;;;;;;;;;4884770;29;20087;-72
2023/05/07 04:40:18;;;;;;;34.35;23.73;;;;;;;;;;4900216;29;20044;-70
2023/05/07 04:42:44;;;;;;;33.10;23.65;;;;;;;;;;4900269;29;20048;-70
2023/05/07 04:45:12;;;;;;;40.03;24.10;;;;;;;;;;4900134;29;20520;-70
2023/05/07 04:47:38;;;;;;;38.97;25.70;;;;;;;;;;4917193;29;20055;-70
2023/05/07 04:50:05;;;;;;;39.97;25.00;;;12.90;99.90;;;;;;4900326;29;20076;-70
2023/05/07 04:52:31;;;;;;;38.58;25.75;;;;;;;;;;4900134;29;20051;-70
2023/05/07 04:54:59;;;;;;;40.03;25.52;;;;;;;;;;4900223;29;20051;-70
2023/05/07 04:57:26;;;;;;;40.20;26.05;;;;;;;;;;4900210;29;20040;-70
2023/05/07 04:59:52;;;;;;;46.40;26.35;;;;;;;;;;4916998;29;20382;-70
2023/05/07 05:02:18;;;;;;;41.88;26.63;;;;;;;;;;4900040;29;20122;-70
2023/05/07 05:04:44;;;;;;;45.83;27.25;;;;;;;;;;4916977;29;20119;-70
2023/05/07 05:07:10;;;;;;;45.13;26.13;;;;;;;;;;4900059;29;20051;-70
2023/05/07 05:09:36;;;;;;;42.60;27.38;;;;;;;;;;4900092;29;20085;-70
2023/05/07 05:12:02;;;;;;;42.10;26.20;;;;;;;;;;4903888;29;20048;-70
2023/05/07 05:14:29;;;;;;;44.85;27.27;;;;;;;;;;4903885;29;20044;-70
2023/05/07 05:16:55;;;;;;;47.15;27.42;;;;;;;;;;4903988;29;20044;-70
2023/05/07 05:19:21;;;;;;;41.58;27.27;;;;;;;;;;4920772;29;20048;-70
2023/05/07 05:21:47;;;;;;;41.03;26.38;;;;;;;;;;4888303;29;20048;-70
2023/05/07 05:24:13;;;;;;;44.60;27.92;;;;;;;;;;4920924;29;20044;-70
2023/05/07 05:26:39;;;;;;;42.20;27.00;;;;;;;;;;4903743;29;20083;-70
2023/05/07 05:29:06;;;;;;;43.10;26.55;;;;;;;;;;4888173;29;20044;-70
2023/05/07 05:31:33;;;;;;;41.83;26.70;;;;;;;;;;4903968;29;20063;-70
2023/05/07 05:33:59;;;;;;;47.63;27.50;;;;;;;;;;4903504;29;20462;-70
2023/05/07 05:36:26;;;;;;;47.83;28.08;;;;;;;;;;4920429;29;20091;-70
2023/05/07 05:38:51;;;;;;;40.53;26.80;;;13.00;99.90;;;;;;4903536;29;20122;-70
2023/05/07 05:41:17;;;;;;;40.85;26.40;;;12.50;99.90;;;;;;4903570;29;20127;-70
2023/05/07 05:43:43;;;;;;;45.45;27.42;;;;;;;;;;4903502;29;20048;-70
2023/05/07 05:46:11;;;;;;;41.28;25.48;;;;;;;;;;4903468;29;20059;-70
2023/05/07 05:48:37;;;;;;;46.28;27.73;;;;;;;;;;4903593;29;20445;-69
2023/05/07 05:51:03;;;;;;;41.58;27.02;;;;;;;;;;4903411;29;20040;-70
2023/05/07 05:53:29;;;;;;;46.03;27.98;;;;;;;;;;4887673;29;20048;-70
2023/05/07 05:55:55;;;;;;;47.15;27.90;;;;;;;;;;4903426;29;20127;-69
2023/05/07 05:58:21;;;;;;;45.05;28.45;;;12.80;99.90;;;;;;4903280;29;20051;-70
2023/05/07 06:00:48;;;;;;;43.70;27.85;;;;;;;;;;4903036;29;20044;-69
2023/05/07 06:03:14;;;;;;;46.35;28.77;;;;;;;;;;4903091;29;20048;-69
2023/05/07 06:05:40;;;;;;;47.92;28.17;;;;;;;;;;4903056;29;20127;-69
2023/05/07 06:08:06;;;;;;;45.90;28.23;;;;;;;;;;4903034;29;20048;-68
2023/05/07 06:10:32;;;;;;;42.75;27.13;;;;;;;;;;4920013;29;20044;-69
2023/05/07 06:12:58;;;;;;;44.10;27.23;;;;;;;;;;4903161;29;20048;-69
2023/05/07 06:15:24;;;;;;;45.47;28.15;;;;;;;;;;4887397;29;20100;-69
2023/05/07 06:17:51;;;;;;;43.67;27.55;;;;;;;;;;4903169;29;20063;-70
2023/05/07 06:20:17;;;;;;;42.53;27.80;;;;;;;;;;4903030;29;20066;-70
2023/05/07 06:22:43;;;;;;;42.28;27.63;;;;;;;;;;4901673;29;20040;-69
2023/05/07 06:25:09;;;;;;;42.70;28.90;;;;;;;;;;4903124;29;20044;-70
2023/05/07 06:27:35;;;;;;;45.90;27.23;;;;;;;;;;4902664;29;20157;-70
2023/05/07 06:30:01;;;;;;;48.03;28.10;;;;;;;;;;4902566;29;20052;-70
2023/05/07 06:32:27;;;;;;;41.45;26.60;;;;;;;;;;4903637;29;20075;-70
2023/05/07 06:34:53;;;;;;;42.85;27.50;;;;;;;;;;4902448;29;20052;-69
2023/05/07 06:37:20;;;;;;;43.88;27.25;;;;;;;;;;4902458;29;20056;-69
2023/05/07 06:39:46;;;;;;;42.65;27.63;;;;;;;;;;4919463;29;20453;-70
2023/05/07 06:42:12;;;;;;;44.58;27.17;;;;;;;;;;4902445;29;20144;-69
2023/05/07 06:44:38;;;;;;;39.28;26.50;;;;;;;;;;4902315;29;20059;-69
2023/05/07 06:47:05;;;;;;;42.53;26.40;;;;;;;;;;4902274;29;20504;-69
2023/05/07 06:49:31;;;;;;;41.03;26.27;;;;;;;;;;4919181;29;20047;-69
2023/05/07 06:51:57;;;;;;;41.40;25.75;;;;;;;;;;4919260;29;20127;-69
2023/05/07 06:54:23;;;;;;;38.35;26.10;;;;;;;;;;4902189;29;20051;-70
2023/05/07 06:56:49;;;;;;;41.75;26.42;;;;;;;;;;4902197;29;20048;-69
2023/05/07 06:59:16;;;;;;;42.35;27.02;;;;;;;;;;4902057;29;20080;-70
2023/05/07 07:01:42;;;;;;;40.35;25.58;;;;;;;;;;4902156;29;20043;-69
2023/05/07 07:04:08;;;;;;;39.90;26.08;;;;;;;;;;4918922;29;20485;-69
2023/05/07 07:06:34;;;;;;;42.08;25.52;;;;;;;;;;4902142;29;20066;-69
2023/05/07 07:09:00;;;;;;;38.15;25.33;;;;;;;;;;4902026;29;20075;-69
2023/05/07 07:11:26;;;;;;;43.22;26.23;;;;;;;;;;4901865;29;20416;-69
2023/05/07 07:13:54;;;;;;;38.70;24.80;;;13.40;99.90;;;;;;4901725;29;20108;-69
2023/05/07 07:16:21;;;;;;;37.47;25.67;;;12.90;99.90;;;;;;4901787;29;20052;-69
2023/05/07 07:18:47;;;;;;;35.90;23.95;;;;;;;;;;4901751;29;20124;-69
2023/05/07 07:21:13;;;;;;;35.63;24.35;;;;;;;;;;4901920;29;20090;-69
2023/05/07 07:23:39;;;;;;;35.47;23.92;;;;;;;;;;4901768;29;20052;-69
2023/05/07 07:26:06;;;;;;;34.65;23.35;;;;;;;;;;4901528;29;20102;-69
2023/05/07 07:28:32;;;;;;;36.58;24.75;;;;;;;;;;4901489;29;20052;-69
2023/05/07 07:30:58;;;;;;;34.95;23.38;;;;;;;;;;4886105;29;20502;-69
2023/05/07 07:33:24;;;;;;;35.20;24.75;;;;;;;;;;4901211;29;20180;-69
2023/05/07 07:35:51;;;;;;;34.58;23.42;;;;;;;;;;4885643;29;20056;-69
2023/05/07 07:38:17;;;;;;;36.58;23.60;;;;;;;;;;4885874;29;20043;-69
2023/05/07 07:40:44;;;;;;;39.53;24.55;;;;;;;;;;4901492;29;20434;-69
2023/05/07 07:43:10;;;;;;;32.75;23.05;;;;;;;;;;4885928;29;20072;-69
2023/05/07 07:45:36;;;;;;;34.63;23.05;;;;;;;;;;4901557;29;20437;-68
2023/05/07 07:48:02;;;;;;;34.53;22.88;;;;;;;;;;4885722;29;20075;-69
2023/05/07 07:50:28;;;;;;;35.50;24.95;;;;;;;;;;4901352;29;20048;-69
2023/05/07 07:52:54;;;;;;;35.05;22.63;;;;;;;;;;4901173;29;20120;-69
2023/05/07 07:55:22;;;;;;;34.63;22.65;;;13.40;99.90;;;;;;4900869;29;20049;-69
2023/05/07 07:57:49;;;;;;;32.58;22.98;;;;;;;;;;4900783;29;20626;-69
2023/05/07 08:00:16;;;;;;;32.03;23.00;;;14.30;99.90;;;;;;4901270;29;20055;-69
2023/05/07 08:02:42;;;;;;;36.45;24.38;;;;;;;;;;4917886;29;20047;-68
2023/05/07 08:05:08;;;;;;;32.58;22.27;;;14.40;99.90;;;;;;4901189;29;20048;-69
2023/05/07 08:07:34;;;;;;;35.40;24.70;;;;;;;;;;4900960;29;20123;-69
2023/05/07 08:10:00;;;;;;;33.65;23.45;;;;;;;;;;4900685;29;20055;-69
2023/05/07 08:12:26;;;;;;;34.67;22.77;;;;;;;;;;4900698;29;20576;-69
2023/05/07 08:14:52;;;;;;;32.80;22.38;;;14.50;99.90;;;;;;4900648;29;20048;-69
2023/05/07 08:17:17;;;;;;;35.97;23.35;;;14.00;99.90;;;;;;4917837;29;20048;-69
2023/05/07 08:19:44;;;;;;;36.17;22.95;;;;;;;;;;4900683;29;20040;-70
2023/05/07 08:22:10;;;;;;;32.13;22.83;;;13.80;99.90;;;;;;4885348;29;20425;-70
2023/05/07 08:24:37;;;;;;;35.67;22.40;;;;;;;;;;4900451;29;20055;-70
2023/05/07 08:27:03;;;;;;;29.95;22.67;;;;;;;;;;4900445;29;20055;-70
2023/05/07 08:29:29;;;;;;;31.52;22.08;;;;;;;;;;4900623;29;20051;-69
2023/05/07 08:31:55;;;;;;;32.95;21.73;;;;;;;;;;4900367;29;20250;-69
2023/05/07 08:34:22;;;;;;;33.13;23.13;;;13.80;99.90;;;;;;4900348;29;20048;-69
2023/05/07 08:36:48;;;;;;;33.45;21.98;;;;;;;;;;4917134;29;20062;-69
2023/05/07 08:39:16;;;;;;;31.15;21.50;;;13.60;99.90;;;;;;4885170;29;20048;-69
2023/05/07 08:41:46;;;;;;;31.83;23.20;;;13.80;99.90;;;;;;4917387;29;20055;-69
2023/05/07 08:44:13;;;;;;;34.53;23.83;;;14.00;99.90;;;;;;4900264;29;20481;-69
2023/05/07 08:46:40;;;;;;;34.72;23.42;;;;;;;;;;4916965;29;20099;-69
2023/05/07 08:49:06;;;;;;;32.75;22.83;;;;;;;;;;4917581;29;20044;-69
2023/05/07 08:51:32;;;;;;;32.53;21.67;;;;;;;;;;4900086;29;20075;-69
2023/05/07 08:53:58;;;;;;;31.55;22.58;;;;;;;;;;4884636;29;20051;-69
2023/05/07 08:56:24;;;;;;;33.47;22.58;;;;;;;;;;4916878;29;20071;-69
2023/05/07 08:58:51;;;;;;;33.60;22.45;;;;;;;;;;4917020;29;20457;-69
2023/05/07 09:01:17;;;;;;;33.38;22.52;;;;;;;;;;4900242;29;20054;-69
2023/05/07 09:03:47;;;;;;;34.17;22.73;;;14.70;99.90;;;;;;4900137;29;20052;-69
2023/05/07 09:06:13;;;;;;;30.40;22.70;;;;;;;;;;4900299;29;20048;-69
2023/05/07 09:08:39;;;;;;;29.55;21.95;;;;;;;;;;4900285;29;20146;-69
2023/05/07 09:11:05;;;;;;;31.45;22.58;;;;;;;;;;4884448;29;20044;-69
2023/05/07 09:13:31;;;;;;;34.50;22.85;;;;;;;;;;4900003;29;20048;-69
2023/05/07 09:15:57;;;;;;;33.30;23.30;;;;;;;;;;4900242;29;20396;-69
2023/05/07 09:18:26;;;;;;;31.38;22.27;;;14.50;99.90;;;;;;4900031;29;20107;-69
2023/05/07 09:20:52;;;;;;;29.90;21.77;;;;;;;;;;4916757;29;20120;-69
2023/05/07 09:23:18;;;;;;;31.05;21.63;;;;;;;;;;4899928;29;20076;-69
2023/05/07 09:25:44;;;;;;;30.75;21.60;;;;;;;;;;4899934;29;20082;-69
2023/05/07 09:28:11;;;;;;;36.20;23.17;;;;;;;;;;4916759;29;20501;-69
2023/05/07 09:30:37;;;;;;;36.30;22.88;;;14.40;99.90;;;;;;4899816;29;20094;-69
2023/05/07 09:33:03;;;;;;;31.27;22.25;;;14.70;99.90;;;;;;4900002;29;20044;-69
2023/05/07 09:35:30;;;;;;;31.23;22.63;;;14.90;99.90;;;;;;4899902;29;20149;-69
2023/05/07 09:37:56;;;;;;;31.35;22.00;;;;;;;;;;4916792;29;20063;-69
2023/05/07 09:40:22;;;;;;;32.25;22.92;;;;;;;;;;4917014;29;20119;-69
2023/05/07 09:42:49;;;;;;;32.45;22.63;;;;;;;;;;4899752;29;20048;-68
2023/05/07 09:45:16;;;;;;;30.27;21.73;;;14.80;99.90;;;;;;4916961;29;20051;-69
2023/05/07 09:47:47;;;;;;;32.58;22.98;;;;;;;;;;4899842;29;20048;-69
2023/05/07 09:50:15;;;;;;;34.20;22.40;;;14.90;99.90;;;;;;4899767;29;20665;-69
2023/05/07 09:52:43;;;;;;;29.83;22.60;;;15.00;99.90;;;;;;4900011;29;20061;-69
2023/05/07 09:55:10;;;;;;;30.15;21.67;;;15.10;99.90;;;;;;4899565;29;20125;-69
2023/05/07 09:57:37;;;;;;;30.15;22.02;;;;;;;;;;4902722;29;20103;-69
2023/05/07 10:00:05;;;;;;;31.58;22.27;;;16.40;99.90;;;;;;4903337;29;20076;-69
2023/05/07 10:02:32;;;;;;;29.83;21.55;;;;;;;;;;4903130;29;20040;-69
2023/05/07 10:05:00;;;;;;;32.70;22.58;;;;;;;;;;4887584;29;20497;-69
2023/05/07 10:07:26;;;;;;;40.42;22.10;;;;;;;;;;4903070;29;20052;-69
2023/05/07 10:09:52;;;;;;;32.03;23.17;;;;;;;;;;4903115;29;20489;-70
2023/05/07 10:12:19;;;;;;;33.47;22.77;;;15.70;99.90;;;;;;4887395;29;20052;-70
2023/05/07 10:14:46;;;;;;;30.83;22.65;;;15.60;99.90;;;;;;4903129;29;20358;-69
2023/05/07 10:17:12;;;;;;;30.95;21.38;;;;;;;;;;4887380;29;20099;-69
2023/05/07 10:19:38;;;;;;;35.47;22.73;;;;;;;;;;4902875;29;20071;-69
2023/05/07 10:22:05;;;;;;;31.35;22.48;;;16.20;99.90;;;;;;4902637;29;20044;-69
2023/05/07 10:24:36;;;;;;;31.40;22.30;;;16.40;99.90;;;;;;4919768;29;20084;-69
2023/05/07 10:27:08;;;;;;;33.33;22.38;;;16.30;99.90;;;;;;4919617;29;20062;-69
2023/05/07 10:29:42;;;;;;;33.60;22.35;;;;;;;;;;4919620;29;20044;-69
2023/05/07 10:32:53;;;;;;;30.45;22.67;;;16.10;99.90;;;;;;4887600;29;20051;-69
2023/05/07 10:35:26;;;;;;;32.13;21.83;;;16.70;99.90;;;;;;4898579;29;20059;-69
2023/05/07 10:37:52;;;;;;;33.45;22.20;;;16.70;99.90;;;;;;4902568;29;20102;-69
2023/05/07 10:40:21;;;;;;;30.98;23.65;;;17.30;99.90;;;;;;4902619;29;20051;-69
2023/05/07 10:43:01;;;;;;;32.17;23.33;;;16.80;99.90;;;;;;4902387;29;20404;-69
2023/05/07 10:45:28;;;;;;;32.58;22.98;;;17.60;99.90;;;;;;4919590;29;20054;-70
2023/05/07 10:48:14;;;;;;;31.38;22.63;;;17.20;99.90;;;;;;4919307;29;20045;-70
2023/05/07 10:50:45;;;;;;;32.45;22.90;;;;;;;;;;4902421;29;20512;-69
2023/05/07 10:53:17;;;;;;;30.13;22.92;;;18.00;99.90;;;;;;4886785;29;20052;-70
2023/05/07 10:56:09;;;;;;;30.38;21.70;;;;;;;;;;4902435;29;20504;-70
2023/05/07 10:58:37;;;;;;;30.92;22.80;;;17.50;99.90;;;;;;4918879;29;20092;-69
2023/05/07 11:01:03;;;;;;;29.70;22.15;;;17.20;99.90;;;;;;4902235;29;20044;-70
2023/05/07 11:03:30;;;;;;;32.35;24.20;;;;;;;;;;4919340;29;20036;-70
2023/05/07 11:06:15;;;;;;;31.95;23.83;;;16.70;99.90;;;;;;4902122;29;20124;-70
2023/05/07 11:08:52;;;;;;;31.00;23.33;;;17.50;99.90;;;;;;4918190;29;20501;-70
2023/05/07 11:11:19;;;;;;;30.50;22.52;;;;;;;;;;4901984;29;20047;-70
2023/05/07 11:13:50;;;;;;;35.13;23.63;;;17.70;99.90;;;;;;4901638;29;20047;-70
2023/05/07 11:16:23;;;;;;;32.00;22.17;;;;;;;;;;4918737;29;20142;-70
2023/05/07 11:18:54;;;;;;;30.38;21.90;;;17.90;99.90;;;;;;4901980;29;20397;-70
2023/05/07 11:21:40;;;;;;;30.27;21.58;;;17.20;99.90;;;;;;4901638;29;20040;-70
2023/05/07 11:24:10;;;;;;;34.30;23.23;;;17.10;99.90;;;;;;4901926;29;20058;-70
2023/05/07 11:26:48;;;;;;;35.03;23.20;;;17.80;99.90;;;;;;4901503;29;20058;-70
2023/05/07 11:29:19;;;;;;;31.20;22.48;;;17.90;99.90;;;;;;4901402;29;20055;-70
2023/05/07 11:31:52;;;;;;;28.73;21.55;;;18.30;99.90;;;;;;4901564;29;20044;-70
2023/05/07 11:34:26;;;;;;;29.45;21.75;;;18.10;99.90;;;;;;4901370;29;20100;-70
2023/05/07 11:36:52;;;;;;;31.00;21.75;;;18.60;99.90;;;;;;4885795;29;20048;-70
2023/05/07 11:39:33;;;;;;;31.38;21.35;;;18.30;99.90;;;;;;4918363;29;20151;-70
2023/05/07 11:42:02;;;;;;;31.20;21.48;;;18.30;99.90;;;;;;4901580;29;20084;-70
2023/05/07 11:44:48;;;;;;;28.38;20.95;;;18.10;99.90;;;;;;4918276;29;20393;-70
2023/05/07 11:47:21;;;;;;;27.38;20.40;;;19.10;99.90;;;;;;4901150;29;20159;-70
2023/05/07 11:49:55;;;;;;;29.02;21.33;;;18.60;99.90;;;;;;4901546;29;20059;-70
2023/05/07 11:52:23;;;;;;;31.95;22.48;;;18.60;99.90;;;;;;4901267;29;20044;-70
2023/05/07 11:54:59;;;;;;;30.30;20.27;;;18.70;99.90;;;;;;4885574;29;20485;-70
2023/05/07 11:57:26;;;;;;;28.20;20.13;;;19.40;99.90;;;;;;4901161;29;20059;-70
2023/05/07 11:59:57;;;;;;;26.83;20.50;;;17.80;99.90;;;;;;4901092;29;20047;-70
2023/05/07 12:02:27;;;;;;;27.38;20.25;;;19.60;99.90;;;;;;4901176;29;20123;-70
2023/05/07 12:04:54;;;;;;;28.13;20.20;;;18.00;99.90;;;;;;4917875;29;20173;-70
2023/05/07 12:07:20;;;;;;;25.60;19.60;;;19.70;99.90;;;;;;4901092;29;20040;-70
2023/05/07 12:09:47;;;;;;;24.58;19.35;;;19.80;99.90;;;;;;4900599;29;20044;-69
2023/05/07 12:12:15;;;;;;;27.27;20.13;;;19.20;99.90;;;;;;4885620;29;20066;-70
2023/05/07 12:14:45;;;;;;;26.60;20.23;;;19.20;99.90;;;;;;4900852;29;20147;-70
2023/05/07 12:17:13;;;;;;;23.20;18.52;;;19.20;99.90;;;;;;4900715;29;20055;-70
2023/05/07 12:19:41;;;;;;;27.75;20.23;;;19.70;99.90;;;;;;4900433;29;20404;-70
2023/05/07 12:22:09;;;;;;;28.15;19.45;;;19.00;99.90;;;;;;4917716;29;20048;-70
2023/05/07 12:24:56;;;;;;;23.00;19.05;;;17.90;99.90;;;;;;4917545;29;20497;-70
2023/05/07 12:27:22;;;;;;;26.23;20.13;;;19.20;99.90;;;;;;4900845;29;20052;-70
2023/05/07 12:29:50;;;;;;;24.95;18.58;;;19.10;99.90;;;;;;4900866;29;20046;-70
2023/05/07 12:32:17;;;;;;;24.80;18.80;;;19.90;99.90;;;;;;4900829;29;20509;-70
2023/05/07 12:34:44;;;;;;;23.80;17.65;;;20.00;99.90;;;;;;4917275;29;20051;-70
2023/05/07 12:37:09;;;;;;;22.88;17.60;;;19.70;99.90;;;;;;4900245;29;20535;-70
2023/05/07 12:39:36;;;;;;;23.40;17.58;;;20.30;99.90;;;;;;4900452;29;20040;-71
2023/05/07 12:42:01;;;;;;;27.00;18.15;;;20.40;99.90;;;;;;4900275;29;20500;-71
2023/05/07 12:44:32;;;;;;;23.13;18.38;;;19.10;99.90;;;;;;4900720;29;20147;-71
2023/05/07 12:47:01;;;;;;;23.65;17.30;;;19.30;99.90;;;;;;4900711;29;20118;-71
2023/05/07 12:49:26;;;;;;;20.15;16.73;;;20.50;99.90;;;;;;4900477;29;20044;-71
2023/05/07 12:51:53;;;;;;;22.30;17.15;;;20.80;99.90;;;;;;4900218;29;20044;-71
2023/05/07 12:54:34;;;;;;;23.40;17.20;;;20.40;99.90;;;;;;4917179;29;20126;-71
2023/05/07 12:57:07;;;;;;;23.95;17.23;;;19.90;99.90;;;;;;4900173;29;20504;-71
2023/05/07 12:59:40;;;;;;;22.85;16.90;;;20.10;99.90;;;;;;4884596;29;20052;-71
2023/05/07 13:02:06;;;;;;;22.85;17.65;;;20.30;99.90;;;;;;4884643;29;20040;-71
2023/05/07 13:04:33;;;;;;;22.95;17.55;;;;;;;;;;4884646;29;20047;-71
2023/05/07 13:06:59;;;;;;;21.25;15.57;;;21.30;99.90;;;;;;4900191;29;20135;-71
2023/05/07 13:09:25;;;;;;;21.70;16.60;;;;;;;;;;4900205;29;20126;-71
2023/05/07 13:11:51;;;;;;;23.25;16.02;;;21.40;99.90;;;;;;4900194;29;20048;-71
2023/05/07 13:14:17;;;;;;;22.48;16.20;;;20.50;99.90;;;;;;4900264;29;20068;-71
2023/05/07 13:16:43;;;;;;;24.40;16.85;;;;;;;;;;4884707;29;20477;-71
2023/05/07 13:19:10;;;;;;;20.45;16.85;;;;;;;;;;4884790;29;20046;-71
2023/05/07 13:21:35;;;;;;;21.80;16.75;;;20.90;99.90;;;;;;4899955;29;20044;-71
2023/05/07 13:24:01;;;;;;;22.27;16.15;;;;;;;;;;4900027;29;20059;-71
2023/05/07 13:26:30;;;;;;;23.67;15.90;;;21.70;99.90;;;;;;4899921;29;20481;-71
2023/05/07 13:28:56;;;;;;;22.27;16.85;;;;;;;;;;4899707;29;20040;-71
2023/05/07 13:31:21;;;;;;;19.50;15.30;;;20.60;99.90;;;;;;4901327;29;20481;-71
2023/05/07 13:33:48;;;;;;;21.58;16.80;;;;;;;;;;4920806;29;20044;-71
2023/05/07 13:36:14;;;;;;;18.55;16.10;;;21.40;99.90;;;;;;4903755;29;20066;-71